Time;durP1;ratioP1;P1;durP2;ratioP2;P2;SDS_P1;SDS_P2;PMS_P1;PMS_P2;Temp;Humidity;BMP_temperature;BMP_pressure;BME280_temperature;BME280_humidity;BME280_pressure;Samples;Min_cycle;Max_cycle;Signal;HPM_P1;HPM_P2
2022/11/18 00:01:31;;;;;;;1.10;1.00;;;;;;;21.09;36.26;98646.81;4497793;28;20038;-62
2022/11/18 00:03:43;;;;;;;0.93;0.80;;;;;;;21.10;36.09;98654.16;4490419;28;20033;-62
2022/11/18 00:05:55;;;;;;;0.80;0.80;;;;;;;21.11;36.30;98658.66;4499900;28;20463;-62
2022/11/18 00:08:05;;;;;;;1.45;0.90;;;;;;;21.09;36.17;98652.53;4499630;28;20137;-62
2022/11/18 00:10:16;;;;;;;1.10;0.90;;;;;;;21.07;36.41;98646.41;4499525;28;20383;-62
2022/11/18 00:14:55;;;;;;;1.55;0.90;;;;;;;21.09;36.76;98659.06;4497200;28;20141;-63
2022/11/18 00:17:06;;;;;;;1.27;1.05;;;;;;;21.09;36.46;98658.28;4499637;28;20982;-62
2022/11/18 00:19:22;;;;;;;2.05;1.00;;;;;;;20.96;36.30;98632.13;4499684;28;20029;-62
2022/11/18 00:21:32;;;;;;;1.80;1.20;;;;;;;21.09;36.32;98659.06;4499103;28;20116;-62
2022/11/18 00:23:42;;;;;;;1.20;0.98;;;;;;;21.08;36.62;98663.19;4500117;28;20605;-62
2022/11/18 00:25:53;;;;;;;1.38;0.93;;;;;;;21.06;36.44;98659.13;4499301;28;20041;-62
2022/11/18 00:28:03;;;;;;;0.93;0.88;;;;;;;21.06;36.34;98653.38;4500836;28;21022;-62
2022/11/18 00:30:14;;;;;;;1.15;1.00;;;;;;;21.09;36.43;98664.81;4498217;28;20042;-62
2022/11/18 00:32:24;;;;;;;0.93;0.85;;;;;;;21.09;36.13;98667.69;4498331;28;20034;-62
2022/11/18 00:34:35;;;;;;;1.25;0.90;;;;;;;21.08;36.08;98670.97;4498733;28;20045;-63
2022/11/18 00:36:46;;;;;;;1.33;0.90;;;;;;;21.07;36.32;98667.31;4496643;28;20495;-63
2022/11/18 00:38:56;;;;;;;1.23;1.00;;;;;;;21.04;36.28;98665.25;4499116;28;20029;-62
2022/11/18 00:41:12;;;;;;;1.00;0.90;;;;;;;21.09;35.84;98664.81;4498168;28;20042;-63
2022/11/18 00:43:22;;;;;;;1.25;0.90;;;;;;;21.08;35.92;98670.97;4496655;28;21066;-63
2022/11/18 00:45:33;;;;;;;1.00;0.90;;;;;;;21.08;35.77;98674.66;4499350;28;20108;-63
2022/11/18 00:47:43;;;;;;;0.85;0.82;;;;;;;21.09;35.51;98682.03;4499439;28;20041;-63
2022/11/18 00:49:54;;;;;;;0.93;0.80;;;;;;;21.06;35.37;98688.59;4497105;28;20478;-62
2022/11/18 00:52:05;;;;;;;1.02;0.90;;;;;;;21.09;35.25;98687.75;4501446;28;20100;-62
2022/11/18 00:54:15;;;;;;;0.85;0.80;;;;;;;21.09;35.72;98689.84;4498947;28;20034;-64
2022/11/18 00:56:26;;;;;;;1.00;0.90;;;;;;;21.09;35.61;98689.84;4497872;28;20042;-63
2022/11/18 00:58:37;;;;;;;1.23;1.13;;;;;;;21.09;35.80;98690.63;4499253;28;20026;-62
2022/11/18 01:00:51;;;;;;;1.10;0.80;;;;;;;21.08;35.95;98691.03;4504443;28;20631;-63
2022/11/18 01:03:01;;;;;;;1.30;1.02;;;;;;;21.08;36.29;98694.75;4497845;28;20035;-63
2022/11/18 01:05:12;;;;;;;1.65;0.98;;;;;;;21.07;36.22;98693.13;4497319;28;20065;-62
2022/11/18 01:07:22;;;;;;;1.10;0.95;;;;;;;21.07;36.53;98693.13;4497946;28;20042;-64
2022/11/18 01:09:33;;;;;;;1.00;0.90;;;;;;;21.09;36.50;98704.97;4496713;28;20038;-62
2022/11/18 01:14:12;;;;;;;1.23;1.10;;;;;;;21.08;36.71;98700.47;4498423;28;20030;-63
2022/11/18 01:16:25;;;;;;;1.13;0.90;;;;;;;21.09;36.54;98707.84;4496935;28;20046;-63
2022/11/18 01:18:36;;;;;;;1.25;0.93;;;;;;;21.06;36.55;98702.16;4497886;28;20121;-64
2022/11/18 01:20:46;;;;;;;1.27;1.10;;;;;;;21.09;36.87;98698.44;4499576;28;20048;-62
2022/11/18 01:22:57;;;;;;;1.90;1.02;;;;;;;21.07;37.25;98704.59;4497691;28;20057;-62
2022/11/18 01:25:08;;;;;;;1.92;1.02;;;;;;;21.07;37.14;98703.78;4495678;28;20034;-62
2022/11/18 01:27:18;;;;;;;1.70;1.02;;;;;;;21.05;37.41;98701.31;4497914;28;20356;-62
2022/11/18 01:29:29;;;;;;;2.60;1.25;;;;;;;21.07;37.14;98695.16;4498124;28;20045;-62
2022/11/18 01:31:39;;;;;;;1.40;1.20;;;;;;;21.07;37.43;98701.72;4497132;28;20486;-62
2022/11/18 01:33:49;;;;;;;2.30;1.20;;;;;;;21.07;37.17;98701.72;4496533;28;20041;-64
2022/11/18 01:36:00;;;;;;;1.58;1.10;;;;;;;21.08;37.46;98702.53;4497439;28;20044;-62
2022/11/18 01:38:13;;;;;;;1.33;1.17;;;;;;;21.09;36.86;98704.19;4498974;28;20134;-62
2022/11/18 01:40:25;;;;;;;1.00;0.90;;;;;;;21.09;36.86;98704.97;4497575;28;20820;-62
2022/11/18 01:42:36;;;;;;;1.55;1.10;;;;;;;21.07;36.91;98701.72;4497286;28;20034;-63
2022/11/18 01:45:08;;;;;;;1.10;1.00;;;;;;;21.08;37.03;98709.09;4494874;28;20486;-64
2022/11/18 01:47:20;;;;;;;1.23;1.00;;;;;;;21.07;37.17;98713.19;4496127;28;20040;-62
2022/11/18 01:49:30;;;;;;;1.23;1.08;;;;;;;21.04;37.21;98711.13;4497628;28;20140;-63
2022/11/18 01:51:55;;;;;;;1.35;1.00;;;;;;;21.04;36.68;98705.41;4497761;28;20426;-62
2022/11/18 01:54:16;;;;;;;0.98;0.90;;;;;;;21.08;37.10;98726.28;4496555;28;20668;-64
2022/11/18 01:56:41;;;;;;;1.05;0.90;;;;;;;21.05;36.94;98721.41;4497556;28;20081;-63
2022/11/18 01:59:07;;;;;;;1.30;1.10;;;;;;;21.06;37.22;98728.75;4496922;28;20132;-62
2022/11/18 02:01:17;;;;;;;1.67;1.20;;;;;;;21.07;37.15;98723.84;4496313;28;20033;-62
2022/11/18 02:03:28;;;;;;;1.55;1.10;;;;;;;21.05;37.14;98730.00;4495527;28;20030;-63
2022/11/18 02:05:40;;;;;;;1.60;1.10;;;;;;;21.08;37.19;98732.03;4496731;28;20172;-62
2022/11/18 02:07:51;;;;;;;1.38;1.20;;;;;;;21.07;37.19;98736.16;4495873;28;20034;-62
2022/11/18 02:10:05;;;;;;;0.98;0.90;;;;;;;21.07;37.36;98733.28;4496806;28;20039;-63
2022/11/18 02:12:15;;;;;;;1.10;0.98;;;;;;;21.06;37.14;98731.63;4497119;28;20049;-62
2022/11/18 02:14:29;;;;;;;1.23;1.13;;;;;;;21.04;37.20;98734.09;4495326;28;20044;-62
2022/11/18 02:16:52;;;;;;;1.58;1.10;;;;;;;21.07;37.59;98739.00;4497662;28;20138;-62
2022/11/18 02:19:16;;;;;;;1.70;1.13;;;;;;;21.07;37.15;98741.06;4497653;28;20418;-62
2022/11/18 02:21:33;;;;;;;1.48;1.15;;;;;;;21.07;37.43;98741.88;4497790;28;20038;-63
2022/11/18 02:23:49;;;;;;;1.42;1.17;;;;;;;21.07;37.22;98741.88;4496417;28;20030;-63
2022/11/18 02:26:56;;;;;;;1.73;1.10;;;;;;;21.07;37.17;98741.06;4511310;28;20048;-62
2022/11/18 02:29:15;;;;;;;1.40;1.00;;;;;;;21.05;37.02;98738.59;4371612;29;20217;-62
2022/11/18 02:31:41;;;;;;;1.88;1.10;;;;;;;21.05;36.73;98738.59;4485553;28;20231;-63
2022/11/18 02:34:25;;;;;;;1.30;1.10;;;;;;;21.07;36.72;98747.63;4496112;28;20664;-62
2022/11/18 02:36:54;;;;;;;2.58;1.00;;;;;;;21.06;36.90;98737.38;4495770;28;20498;-62
2022/11/18 02:39:08;;;;;;;1.05;0.95;;;;;;;21.07;36.59;98730.41;4496618;28;20069;-62
2022/11/18 02:41:25;;;;;;;1.20;1.00;;;;;;;21.06;37.42;98734.50;4495484;28;20613;-62
2022/11/18 02:43:47;;;;;;;;;;;;;;;21.07;37.18;98741.06;4495329;28;20029;-62
2022/11/18 02:46:04;;;;;;;1.50;1.25;;;;;;;21.06;37.14;98740.22;4498469;28;20036;-62
2022/11/18 02:48:16;;;;;;;1.75;1.02;;;;;;;21.06;36.94;98745.16;4497549;28;20121;-62
2022/11/18 02:50:29;;;;;;;1.10;1.00;;;;;;;21.07;36.74;98741.06;4489827;28;20080;-63
2022/11/18 02:52:41;;;;;;;1.33;1.17;;;;;;;21.05;36.60;98741.47;4498703;28;20033;-62
2022/11/18 02:54:54;;;;;;;1.17;1.08;;;;;;;21.04;36.99;98748.44;4495584;28;20187;-62
2022/11/18 02:57:05;;;;;;;1.17;1.08;;;;;;;21.03;36.89;98737.38;4495620;28;20585;-63
2022/11/18 02:59:19;;;;;;;1.17;1.00;;;;;;;21.07;36.73;98750.50;4496122;28;20038;-62
2022/11/18 03:01:32;;;;;;;1.45;1.02;;;;;;;21.06;36.27;98745.97;4494077;28;20021;-62
2022/11/18 03:03:42;;;;;;;1.30;1.10;;;;;;;21.00;35.79;98744.75;4496817;28;20056;-62
2022/11/18 03:06:14;;;;;;;1.67;1.20;;;;;;;21.07;35.44;98749.66;4496511;28;20037;-62
2022/11/18 03:08:36;;;;;;;1.73;1.20;;;;;;;20.95;35.50;98730.81;4495331;28;20070;-63
2022/11/18 03:11:09;;;;;;;1.38;1.20;;;;;;;21.03;35.93;98752.53;4497002;28;20044;-62
2022/11/18 03:13:27;;;;;;;1.63;1.20;;;;;;;21.06;36.10;98756.66;4496028;28;20107;-62
2022/11/18 03:15:56;;;;;;;1.13;1.02;;;;;;;21.06;35.00;98757.44;4495275;28;20026;-62
2022/11/18 03:18:24;;;;;;;1.40;1.30;;;;;;;21.07;35.77;98764.00;4497467;28;20057;-62
2022/11/18 03:20:46;;;;;;;1.70;1.30;;;;;;;21.07;35.41;98769.75;4495432;28;20040;-62
2022/11/18 03:23:06;;;;;;;1.40;1.30;;;;;;;21.07;35.31;98770.56;4496213;28;20070;-62
2022/11/18 03:25:36;;;;;;;1.20;1.10;;;;;;;21.06;34.84;98771.00;4496516;28;20041;-62
2022/11/18 03:28:13;;;;;;;1.60;1.40;;;;;;;21.05;35.30;98778.75;4497370;28;20611;-62
2022/11/18 03:30:24;;;;;;;1.42;1.20;;;;;;;21.04;35.00;98764.84;4497352;28;20038;-63
2022/11/18 03:32:40;;;;;;;1.40;1.30;;;;;;;21.05;34.40;98778.75;4511171;28;20042;-64
2022/11/18 03:34:58;;;;;;;1.30;1.20;;;;;;;21.04;34.86;98777.09;4495539;28;20157;-62
2022/11/18 03:37:13;;;;;;;1.60;1.10;;;;;;;21.04;35.19;98782.84;4497266;28;20807;-62
2022/11/18 03:39:24;;;;;;;1.30;1.00;;;;;;;21.03;35.14;98786.97;4497056;28;20613;-62
2022/11/18 03:41:39;;;;;;;0.70;0.70;;;;;;;21.05;35.12;98795.97;4495985;28;20037;-63
2022/11/18 03:44:03;;;;;;;1.30;0.90;;;;;;;21.04;34.40;98797.19;4495236;28;20046;-62
2022/11/18 03:46:25;;;;;;;1.10;1.00;;;;;;;21.05;34.34;98795.97;4496394;28;20042;-62
2022/11/18 03:48:43;;;;;;;1.17;1.02;;;;;;;21.06;33.95;98805.41;4487418;28;20896;-63
2022/11/18 03:50:56;;;;;;;1.30;1.20;;;;;;;21.02;34.05;98805.41;4496088;28;20542;-62
2022/11/18 03:53:09;;;;;;;1.30;1.20;;;;;;;21.04;34.16;98810.72;4495798;28;20144;-63
2022/11/18 03:55:23;;;;;;;1.10;1.00;;;;;;;21.01;33.93;98798.03;4496517;28;20041;-62
2022/11/18 03:57:41;;;;;;;1.40;1.05;;;;;;;21.03;33.90;98814.81;4488578;28;20042;-63
2022/11/18 04:00:01;;;;;;;1.00;0.90;;;;;;;21.00;33.78;98809.91;4496257;28;20045;-62
2022/11/18 04:02:15;;;;;;;0.80;0.80;;;;;;;21.03;34.09;98815.63;4487579;28;20057;-63
2022/11/18 04:04:27;;;;;;;0.82;0.82;;;;;;;21.05;34.04;98818.09;4494498;28;20036;-62
2022/11/18 04:06:53;;;;;;;1.00;0.90;;;;;;;20.92;34.10;98796.78;4496066;28;20030;-62
2022/11/18 04:09:10;;;;;;;0.93;0.88;;;;;;;21.05;34.04;98821.78;4497611;28;20034;-62
2022/11/18 04:14:13;;;;;;;0.80;0.80;;;;;;;21.04;33.46;98828.75;4479832;28;20047;-63
2022/11/18 04:16:23;;;;;;;0.57;0.57;;;;;;;21.02;33.37;98827.53;4496188;28;20025;-62
2022/11/18 04:18:34;;;;;;;0.85;0.85;;;;;;;21.05;33.46;98833.25;4496264;28;20034;-62
2022/11/18 04:20:44;;;;;;;1.75;1.02;;;;;;;21.04;34.45;98834.47;4495096;28;20530;-62
2022/11/18 04:22:55;;;;;;;1.20;1.10;;;;;;;21.06;34.79;98836.97;4495589;28;20069;-62
2022/11/18 04:25:05;;;;;;;1.30;1.20;;;;;;;21.03;34.75;98832.84;4498470;28;20596;-62
2022/11/18 04:27:16;;;;;;;1.35;1.23;;;;;;;21.04;35.00;98834.47;4498879;28;20382;-62
2022/11/18 04:29:27;;;;;;;1.20;1.10;;;;;;;21.02;35.00;98831.22;4498497;28;20916;-62
2022/11/18 04:31:37;;;;;;;1.35;1.25;;;;;;;21.01;34.86;98829.56;4477685;28;20042;-62
2022/11/18 04:33:47;;;;;;;1.70;1.27;;;;;;;21.05;34.91;98839.00;4498294;28;20037;-62
2022/11/18 04:35:58;;;;;;;1.45;1.17;;;;;;;21.03;34.51;98829.16;4498399;28;20093;-62
2022/11/18 04:38:08;;;;;;;1.13;0.90;;;;;;;21.03;34.62;98847.19;4498984;28;20156;-62
2022/11/18 04:40:19;;;;;;;1.10;1.00;;;;;;;21.02;34.44;98841.88;4498700;28;20088;-62
2022/11/18 04:42:29;;;;;;;1.70;1.20;;;;;;;21.04;34.08;98848.03;4499442;28;20116;-62
2022/11/18 04:44:40;;;;;;;1.00;0.90;;;;;;;21.03;34.61;98849.22;4499442;28;20046;-62
2022/11/18 04:46:51;;;;;;;1.40;1.30;;;;;;;21.04;34.37;98843.09;4498491;28;20026;-62
2022/11/18 04:49:01;;;;;;;1.30;1.20;;;;;;;21.04;34.85;98857.44;4496681;28;20038;-62
2022/11/18 04:51:12;;;;;;;1.55;1.45;;;;;;;21.03;35.01;98855.81;4498082;28;20441;-63
2022/11/18 04:53:22;;;;;;;1.50;1.25;;;;;;;21.03;35.30;98855.81;4497465;28;20097;-63
2022/11/18 04:55:35;;;;;;;1.70;1.50;;;;;;;21.04;35.33;98857.44;4498104;28;20038;-62
2022/11/18 04:57:45;;;;;;;1.42;1.17;;;;;;;21.04;35.37;98866.03;4497851;28;20145;-62
2022/11/18 04:59:56;;;;;;;1.15;1.02;;;;;;;21.03;35.41;98870.13;4497608;28;20038;-62
2022/11/18 05:02:06;;;;;;;1.40;1.30;;;;;;;21.03;35.25;98861.53;4498297;28;20197;-62
2022/11/18 05:04:22;;;;;;;1.40;1.30;;;;;;;20.99;35.77;98849.25;4499529;28;20207;-62
2022/11/18 05:06:33;;;;;;;1.38;1.27;;;;;;;21.03;35.69;98864.41;4497256;28;20073;-62
2022/11/18 05:08:43;;;;;;;1.30;1.20;;;;;;;21.04;35.79;98868.09;4497412;28;20038;-62
2022/11/18 05:12:47;;;;;;;1.77;1.58;;;;;;;21.01;35.82;98863.19;4496956;28;20022;-62
2022/11/18 05:13:24;;;;;;;1.42;1.33;;;;;;;21.03;35.88;98869.31;4499722;28;20034;-62
2022/11/18 05:15:35;;;;;;;1.40;1.00;;;;;;;20.99;36.25;98874.25;4498574;28;20756;-62
2022/11/18 05:17:46;;;;;;;1.23;1.10;;;;;;;21.01;35.34;98868.94;4498912;28;20500;-62
2022/11/18 05:19:56;;;;;;;1.02;1.00;;;;;;;20.99;34.95;98872.22;4498918;28;20042;-62
2022/11/18 05:22:07;;;;;;;1.10;1.00;;;;;;;21.00;34.74;98873.00;4497906;28;20033;-62
2022/11/18 05:24:18;;;;;;;1.58;1.38;;;;;;;21.04;34.98;98880.38;4495945;28;20054;-62
2022/11/18 05:26:29;;;;;;;1.30;1.20;;;;;;;21.01;35.20;98878.34;4496400;28;20069;-62
2022/11/18 05:28:39;;;;;;;1.10;1.00;;;;;;;21.03;35.25;98881.63;4497477;28;20030;-62
2022/11/18 05:30:49;;;;;;;1.40;1.30;;;;;;;21.00;35.16;98879.56;4498007;28;20048;-62
2022/11/18 05:33:00;;;;;;;1.58;1.27;;;;;;;21.02;35.23;98888.59;4497045;28;20058;-62
2022/11/18 05:35:10;;;;;;;1.50;1.35;;;;;;;21.04;35.39;98893.91;4499788;28;20033;-62
2022/11/18 05:37:21;;;;;;;1.20;1.10;;;;;;;21.04;35.42;98891.84;4498189;28;20072;-62
2022/11/18 05:39:32;;;;;;;1.65;1.40;;;;;;;21.03;35.41;98895.97;4496704;28;20044;-62
2022/11/18 05:44:11;;;;;;;1.10;1.00;;;;;;;21.03;34.84;98895.13;4497315;28;20038;-62
2022/11/18 05:46:22;;;;;;;1.27;1.17;;;;;;;21.02;35.20;98894.31;4496402;28;20482;-62
2022/11/18 05:48:32;;;;;;;1.38;1.27;;;;;;;21.03;35.06;98910.28;4499291;28;20063;-62
2022/11/18 05:50:47;;;;;;;1.20;1.10;;;;;;;21.04;35.04;98908.25;4497454;28;20037;-62
2022/11/18 05:52:57;;;;;;;1.27;1.13;;;;;;;20.99;34.72;98895.16;4496837;28;20623;-62
2022/11/18 05:55:10;;;;;;;1.10;1.00;;;;;;;21.01;34.66;98903.34;4497879;28;20128;-62
2022/11/18 05:57:21;;;;;;;1.42;1.30;;;;;;;21.02;34.72;98910.72;4496198;28;20129;-62
2022/11/18 05:59:31;;;;;;;1.63;1.40;;;;;;;20.98;35.08;98904.97;4499832;28;20034;-62
2022/11/18 06:02:05;;;;;;;1.60;1.45;;;;;;;21.00;34.90;98907.44;4496839;28;20149;-62
2022/11/18 06:04:40;;;;;;;1.60;1.50;;;;;;;21.02;35.18;98917.28;4497658;28;20041;-62
2022/11/18 06:06:54;;;;;;;3.00;1.83;;;;;;;21.00;35.14;98914.00;4496193;28;20601;-62
2022/11/18 06:09:07;;;;;;;2.03;1.70;;;;;;;21.02;35.55;98917.28;4495057;28;20034;-63
2022/11/18 06:11:18;;;;;;;1.63;1.50;;;;;;;21.01;35.24;98912.75;4496640;28;20125;-62
2022/11/18 06:13:37;;;;;;;2.00;1.70;;;;;;;21.03;35.41;98921.78;4496196;28;20042;-62
2022/11/18 06:15:48;;;;;;;1.98;1.65;;;;;;;21.02;35.49;98920.16;4496605;28;20044;-62
2022/11/18 06:18:03;;;;;;;2.22;1.55;;;;;;;21.03;35.34;98929.56;4497300;28;20056;-63
2022/11/18 06:20:18;;;;;;;1.55;1.45;;;;;;;20.99;35.29;98925.88;4498094;28;20117;-62
2022/11/18 06:22:28;;;;;;;1.58;1.42;;;;;;;21.01;35.49;98932.84;4494127;28;20038;-63
2022/11/18 06:24:40;;;;;;;1.58;1.45;;;;;;;21.03;35.28;98935.28;4499481;28;20026;-62
2022/11/18 06:26:51;;;;;;;1.48;1.30;;;;;;;21.02;35.36;98934.50;4495876;28;20040;-62
2022/11/18 06:29:02;;;;;;;1.55;1.40;;;;;;;21.01;35.09;98935.69;4495795;28;20041;-62
2022/11/18 06:31:12;;;;;;;1.55;1.38;;;;;;;20.98;35.59;98933.66;4497432;28;20032;-62
2022/11/18 06:33:23;;;;;;;2.92;1.80;;;;;;;20.99;35.35;98932.44;4496263;28;20048;-62
2022/11/18 06:35:33;;;;;;;1.80;1.60;;;;;;;21.01;35.26;98938.56;4496829;28;20037;-63
2022/11/18 06:37:45;;;;;;;1.80;1.52;;;;;;;21.01;35.44;98946.38;4486829;28;20041;-62
2022/11/18 06:39:55;;;;;;;2.28;1.60;;;;;;;21.01;35.65;98943.50;4488241;28;20026;-62
2022/11/18 06:42:06;;;;;;;1.50;1.40;;;;;;;21.01;35.78;98961.50;4495009;28;20387;-62
2022/11/18 06:44:16;;;;;;;1.80;1.60;;;;;;;21.02;35.88;98968.06;4496519;28;20025;-63
2022/11/18 06:48:56;;;;;;;1.98;1.50;;;;;;;21.01;35.52;98964.38;4496467;28;20038;-61
2022/11/18 06:51:07;;;;;;;1.70;1.50;;;;;;;21.00;35.75;98971.34;4494461;28;20462;-62
2022/11/18 06:53:17;;;;;;;1.52;1.42;;;;;;;21.01;35.65;98975.84;4495344;28;20069;-62
2022/11/18 06:55:28;;;;;;;1.50;1.40;;;;;;;21.01;35.62;98978.72;4495836;28;20104;-61
2022/11/18 06:57:38;;;;;;;1.50;1.40;;;;;;;21.02;35.49;98989.00;4494380;28;20046;-62
2022/11/18 06:59:49;;;;;;;1.40;1.30;;;;;;;21.03;36.01;98987.75;4495745;28;20245;-61
2022/11/18 07:01:59;;;;;;;1.95;1.63;;;;;;;20.98;35.59;98973.81;4494373;28;20042;-61
2022/11/18 07:04:09;;;;;;;1.90;1.63;;;;;;;20.99;35.92;98980.38;4493861;28;20092;-62
2022/11/18 07:06:22;;;;;;;1.73;1.63;;;;;;;21.02;36.61;98991.84;4494366;28;20037;-63
2022/11/18 07:08:38;;;;;;;1.60;1.50;;;;;;;21.01;36.75;98995.94;4497462;28;20032;-63
2022/11/18 07:10:52;;;;;;;2.67;1.88;;;;;;;21.00;36.23;98993.47;4494860;28;20026;-63
2022/11/18 07:13:02;;;;;;;2.22;1.90;;;;;;;21.01;36.12;98998.00;4495594;28;20041;-62
2022/11/18 07:15:13;;;;;;;1.98;1.77;;;;;;;20.99;36.08;98998.41;4495111;28;20038;-63
2022/11/18 07:17:23;;;;;;;2.00;1.80;;;;;;;21.01;36.04;99007.41;4496460;28;20042;-63
2022/11/18 07:19:34;;;;;;;1.90;1.70;;;;;;;21.01;36.28;99004.53;4486558;28;20073;-62
2022/11/18 07:21:44;;;;;;;2.08;1.80;;;;;;;21.01;36.21;99010.28;4495966;28;20077;-62
2022/11/18 07:23:55;;;;;;;2.20;2.00;;;;;;;21.00;36.42;99011.50;4494251;28;20034;-63
2022/11/18 07:26:07;;;;;;;2.10;1.80;;;;;;;21.02;36.35;99019.72;4493649;28;20128;-63
2022/11/18 07:28:17;;;;;;;2.00;1.80;;;;;;;21.00;36.30;99023.00;4494210;28;20030;-63
2022/11/18 07:30:28;;;;;;;2.63;2.03;;;;;;;21.02;36.29;99037.75;4496188;28;20475;-63
2022/11/18 07:32:38;;;;;;;2.50;1.95;;;;;;;20.99;36.56;99041.44;4495193;28;20053;-63
2022/11/18 07:34:49;;;;;;;2.08;1.88;;;;;;;21.01;36.21;99038.16;4495293;28;20097;-62
2022/11/18 07:36:59;;;;;;;2.25;1.80;;;;;;;21.01;36.36;99041.81;4495463;28;20073;-62
2022/11/18 07:39:09;;;;;;;1.95;1.75;;;;;;;20.98;36.29;99045.50;4495205;28;20526;-60
2022/11/18 07:41:22;;;;;;;1.05;0.82;;;;;;;21.45;44.18;99050.91;4495838;28;20133;-62
2022/11/18 07:43:33;;;;;;;11.52;8.60;;;;;;;21.43;35.80;99056.22;4496979;28;20034;-62
2022/11/18 07:45:44;;;;;;;3.45;2.90;;;;;;;21.12;36.33;99059.88;4487022;28;20018;-62
2022/11/18 07:47:54;;;;;;;2.63;2.10;;;;;;;21.06;36.23;99067.25;4493792;28;20030;-62
2022/11/18 07:50:05;;;;;;;1.73;1.63;;;;;;;21.06;36.27;99073.00;4495340;28;20042;-62
2022/11/18 07:52:15;;;;;;;2.00;1.70;;;;;;;21.02;36.44;99072.19;4493167;28;20355;-62
2022/11/18 07:54:26;;;;;;;1.75;1.60;;;;;;;21.01;36.08;99072.59;4484164;28;20129;-62
2022/11/18 07:56:36;;;;;;;1.70;1.60;;;;;;;21.02;36.09;99075.03;4493536;28;20116;-62
2022/11/18 07:58:51;;;;;;;1.88;1.67;;;;;;;20.90;36.27;99058.16;4495549;28;20026;-62
2022/11/18 08:01:15;;;;;;;2.15;1.73;;;;;;;21.03;36.25;99084.44;4492851;28;20038;-63
2022/11/18 08:03:26;;;;;;;1.98;1.60;;;;;;;21.02;36.62;99089.38;4495755;28;20047;-62
2022/11/18 08:05:37;;;;;;;1.90;1.60;;;;;;;21.01;36.39;99096.34;4497141;28;20541;-62
2022/11/18 08:07:47;;;;;;;1.80;1.60;;;;;;;21.01;36.43;99098.41;4498923;28;20460;-61
2022/11/18 08:09:57;;;;;;;1.60;1.50;;;;;;;21.02;36.28;99100.03;4496039;28;20125;-62
2022/11/18 08:12:08;;;;;;;1.55;1.45;;;;;;;20.99;36.38;99098.81;4497775;28;20034;-62
2022/11/18 08:14:20;;;;;;;2.15;1.50;;;;;;;21.01;36.86;99095.53;4499181;28;20553;-62
2022/11/18 08:16:31;;;;;;;2.15;1.70;;;;;;;21.01;36.85;99092.66;4498621;28;20026;-62
2022/11/18 08:18:41;;;;;;;2.00;1.67;;;;;;;21.00;36.75;99099.59;4497347;28;20065;-61
2022/11/18 08:20:52;;;;;;;1.70;1.60;;;;;;;21.03;36.59;99101.66;4498560;28;20643;-62
2022/11/18 08:23:02;;;;;;;1.60;1.50;;;;;;;21.03;37.24;99113.13;4497962;28;20573;-61
2022/11/18 08:25:13;;;;;;;2.10;1.90;;;;;;;21.02;37.00;99111.50;4498147;28;20041;-61
2022/11/18 08:27:23;;;;;;;1.98;1.60;;;;;;;21.01;37.37;99110.66;4498161;28;20038;-61
2022/11/18 08:29:33;;;;;;;1.95;1.70;;;;;;;21.03;37.38;99119.69;4496507;28;20030;-62
2022/11/18 08:31:44;;;;;;;2.00;1.67;;;;;;;21.02;37.31;99120.94;4497468;28;20022;-62
2022/11/18 08:33:57;;;;;;;1.80;1.70;;;;;;;21.03;37.37;99125.44;4496942;28;20687;-61
2022/11/18 08:36:16;;;;;;;1.88;1.75;;;;;;;21.02;37.17;99126.69;4497343;28;20030;-62
2022/11/18 08:38:26;;;;;;;1.90;1.70;;;;;;;20.97;37.41;99114.75;4495448;28;20069;-61
2022/11/18 08:40:40;;;;;;;1.83;1.70;;;;;;;21.00;37.27;99123.38;4498269;28;20041;-61
2022/11/18 08:42:51;;;;;;;2.30;1.70;;;;;;;20.98;37.10;99128.69;4497881;28;20108;-62
2022/11/18 08:45:03;;;;;;;1.70;1.60;;;;;;;21.03;37.07;99124.59;4497495;28;20088;-61
2022/11/18 08:47:13;;;;;;;1.88;1.70;;;;;;;20.98;37.38;99122.97;4495810;28;20516;-61
2022/11/18 08:49:24;;;;;;;2.15;1.95;;;;;;;21.01;37.21;99124.22;4489608;28;20033;-61
2022/11/18 08:51:34;;;;;;;1.90;1.70;;;;;;;21.02;37.20;99128.72;4496364;28;20042;-61
2022/11/18 08:53:44;;;;;;;2.33;1.95;;;;;;;21.04;37.28;99132.81;4497545;28;20756;-61
2022/11/18 08:55:56;;;;;;;2.10;1.90;;;;;;;21.05;37.26;99130.78;4495854;28;20490;-61
2022/11/18 08:58:07;;;;;;;2.50;2.30;;;;;;;21.04;37.40;99138.53;4497398;28;20056;-61
2022/11/18 09:00:18;;;;;;;3.03;2.30;;;;;;;21.04;37.40;99144.28;4497565;28;20044;-61
2022/11/18 09:02:28;;;;;;;2.80;2.50;;;;;;;21.02;37.29;99135.28;4497603;28;20070;-64
2022/11/18 09:04:39;;;;;;;3.10;2.10;;;;;;;21.04;37.35;99138.53;4496270;28;20119;-62
2022/11/18 09:06:49;;;;;;;2.88;2.10;;;;;;;21.05;37.28;99145.13;4498514;28;20588;-62
2022/11/18 09:09:00;;;;;;;2.90;2.20;;;;;;;21.05;37.59;99145.13;4498118;28;20041;-61
2022/11/18 09:11:18;;;;;;;2.83;2.42;;;;;;;21.06;37.78;99153.31;4497738;28;20030;-65
2022/11/18 09:13:29;;;;;;;2.92;2.42;;;;;;;21.04;37.84;99141.41;4496069;28;20038;-63
2022/11/18 09:15:39;;;;;;;3.15;2.70;;;;;;;21.05;37.65;99148.81;4496815;28;20486;-63
2022/11/18 09:17:49;;;;;;;3.35;2.72;;;;;;;21.06;37.57;99146.78;4496851;28;20150;-62
2022/11/18 09:20:00;;;;;;;2.83;2.53;;;;;;;21.05;37.90;99145.94;4495940;28;20056;-62
2022/11/18 09:22:10;;;;;;;3.08;2.28;;;;;;;21.07;37.68;99149.25;4498065;28;20467;-62
2022/11/18 09:24:21;;;;;;;2.55;2.20;;;;;;;21.06;38.01;99144.72;4498592;28;20100;-62
2022/11/18 09:26:31;;;;;;;2.35;2.10;;;;;;;21.06;40.06;99147.56;4495376;28;20034;-62
2022/11/18 09:28:42;;;;;;;3.13;2.30;;;;;;;21.07;38.70;99154.97;4496016;28;20516;-61
2022/11/18 09:30:53;;;;;;;2.83;2.20;;;;;;;21.05;38.30;99157.41;4495249;28;20117;-62
2022/11/18 09:33:03;;;;;;;2.35;2.10;;;;;;;21.08;38.17;99159.47;4496074;28;20013;-61
2022/11/18 09:35:13;;;;;;;2.50;2.13;;;;;;;21.07;38.36;99160.72;4497414;28;20127;-61
2022/11/18 09:37:24;;;;;;;2.65;2.13;;;;;;;21.08;38.32;99162.34;4495683;28;20054;-61
2022/11/18 09:39:38;;;;;;;2.42;2.00;;;;;;;21.07;38.60;99160.72;4497776;28;20035;-62
2022/11/18 09:42:11;;;;;;;2.40;2.20;;;;;;;21.07;38.67;99165.63;4497287;28;20026;-62
2022/11/18 09:44:38;;;;;;;2.65;1.95;;;;;;;21.10;38.77;99168.50;4496139;28;20263;-62
2022/11/18 09:47:19;;;;;;;2.90;2.50;;;;;;;21.11;38.50;99172.19;4487400;28;20037;-61
2022/11/18 09:49:41;;;;;;;2.63;2.38;;;;;;;21.09;38.71;99169.72;4484267;28;20052;-61
2022/11/18 09:51:53;;;;;;;2.85;2.30;;;;;;;21.03;38.76;99168.47;4495278;28;20052;-61
2022/11/18 09:54:03;;;;;;;2.70;2.50;;;;;;;21.09;38.64;99181.19;4496715;28;20120;-61
2022/11/18 09:56:15;;;;;;;2.42;2.22;;;;;;;21.10;38.84;99176.28;4496026;28;20034;-62
2022/11/18 09:58:34;;;;;;;2.90;2.50;;;;;;;21.11;38.50;99190.22;4494174;28;20971;-61
2022/11/18 10:00:45;;;;;;;2.63;2.35;;;;;;;21.08;38.60;99185.28;4496398;28;20140;-62
2022/11/18 10:03:06;;;;;;;2.60;2.40;;;;;;;21.12;39.04;99191.06;4495499;28;20038;-61
2022/11/18 10:05:20;;;;;;;2.70;2.30;;;;;;;21.12;38.93;99194.72;4495295;28;20034;-62
2022/11/18 10:07:47;;;;;;;2.95;2.33;;;;;;;21.03;39.31;99174.22;4496075;28;20058;-61
2022/11/18 10:10:04;;;;;;;2.95;2.30;;;;;;;21.11;39.15;99190.22;4496461;28;20034;-62
2022/11/18 10:12:21;;;;;;;2.40;2.20;;;;;;;21.12;39.10;99196.78;4496233;28;20034;-62
2022/11/18 10:14:41;;;;;;;2.80;2.20;;;;;;;21.14;38.93;99197.19;4496751;28;20033;-62
2022/11/18 10:16:58;;;;;;;2.40;2.10;;;;;;;21.14;38.81;99203.75;4497938;28;20356;-62
2022/11/18 10:19:33;;;;;;;2.22;1.70;;;;;;;21.13;38.81;99205.00;4497483;28;20608;-65
2022/11/18 10:21:58;;;;;;;2.03;1.83;;;;;;;21.15;39.00;99210.31;4485140;28;20097;-63
2022/11/18 10:24:24;;;;;;;2.22;1.90;;;;;;;21.16;38.70;99223.44;4497350;28;20650;-63
2022/11/18 10:26:37;;;;;;;2.10;1.90;;;;;;;21.15;39.12;99222.63;4512488;28;20026;-61
2022/11/18 10:28:48;;;;;;;2.08;1.88;;;;;;;21.14;39.38;99215.22;4477717;28;20046;-61
2022/11/18 10:31:09;;;;;;;2.33;1.90;;;;;;;21.18;39.37;99226.72;4493354;28;20069;-62
2022/11/18 10:33:20;;;;;;;2.05;1.85;;;;;;;21.20;38.67;99227.94;4486282;28;20107;-61
2022/11/18 10:35:36;;;;;;;2.05;1.70;;;;;;;21.21;39.07;99225.91;4495179;28;20093;-61
2022/11/18 10:38:00;;;;;;;1.98;1.75;;;;;;;21.23;39.08;99224.28;4495184;28;20041;-63
2022/11/18 10:40:23;;;;;;;2.22;1.88;;;;;;;21.25;38.96;99235.38;4496028;28;20658;-61
2022/11/18 10:42:39;;;;;;;2.40;1.90;;;;;;;21.24;38.58;99228.81;4494554;28;20033;-61
2022/11/18 10:44:50;;;;;;;2.05;1.52;;;;;;;21.25;38.65;99233.31;4487438;28;20221;-60